Noord Nederlandse Zweefvliegclub

NL-0036 · Groningen, 荷兰

罗盘
风向 的 风向 的 风向 到 风向 270° Noord Nederlandse Zweefvliegclub 9/27
风: 5 kt, 2 beaufort

5 kt

改变
0 1.000 2.000 3.000 4.000 5.000
没有观察到明显的云
METAR EHGG 030755Z AUTO 27005KT 240V310 9999 NSC 13/10 Q1026 NOSIG

METAR Noord Nederlandse Zweefvliegclub - NL-0036

Noord Nederlandse Zweefvliegclub是Borgercompagnie,荷兰中的格利德菲尔德。 该机场有一条跑道: 9/27. 该领域的国际民航组织标志是NL-0036.

这份报告是针对2022年10月3日 09:55, 当地时间在Groningen Airport Eelde进行的。

机场观察

风向为270°,速度为5 kt。 风向在240°和310°之间变化。

可见度为10 km 或者更多。

有没有观察到明显的云。 没有观察到天花板。

温度和风寒是13 °C。 露点为10 °C,相对湿度为82%。 海平面上的气压为1026 hPa (QNH)。

白天

今天,太阳从07:37升起,在19:05降落。 这适用于Noord Nederlandse Zweefvliegclub,世界夏令时可能有所不同。 当地时间与世界标准时间之间的时差为+2 小时。 夏令时目前正在进行中。

公司介绍

在这个机场,你可以找到飞行俱乐部。 本场上唯一已知的公司是Noord Nederlandse Zweefvliegclub。

体会

到Vliegles.nl去找飞行课程,跳伞和其他飞行体验。 浏览页面,了解Noord Nederlandse Zweefvliegclub附近所有可用的活动。 你也可以使用搜索功能来寻找你所在地附近的特定飞行课程、跳伞或其他飞行体验。

跑道

Id 标题 侧风 逆风 侧风 %
9/27 090°-270° 5 kt 0 %

逆风成分最大的方向会被突出显示,并用于横风计算。 这并不一定意味着这个方向在使用。

乌云

- NSC 没有观察到明显的云

温度 & 天气

温度 13 °C
露点 10 °C
相对湿度 82%
Kp-index 2 (0-9)

白天

日出
07:38
中午
13:22
日落
19:06 (8h 52m)

小工具

你想在你的网站上有一个关于Noord Nederlandse Zweefvliegclub的当前航空天气(METAR)的小部件吗?

</> 显示HTML代码

我们和第三方通过cookies跟踪您在我们网站上的上网行为。如果您继续,我们认为您同意我们的cookie政策。 了解更多